sensor_id;sensor_type;location;lat;lon;timestamp;temperature;humidity
13354;DHT22;6746;50.892;4.064;2023-03-01T00:01:21;0.60;99.90
13354;DHT22;6746;50.892;4.064;2023-03-01T00:03:58;0.50;99.90
13354;DHT22;6746;50.892;4.064;2023-03-01T00:06:46;0.50;99.90
13354;DHT22;6746;50.892;4.064;2023-03-01T00:09:35;0.50;99.90
13354;DHT22;6746;50.892;4.064;2023-03-01T00:12:22;0.40;99.90
13354;DHT22;6746;50.892;4.064;2023-03-01T00:15:08;0.40;99.90
13354;DHT22;6746;50.892;4.064;2023-03-01T00:17:47;0.30;99.90
13354;DHT22;6746;50.892;4.064;2023-03-01T00:20:28;0.30;99.90
13354;DHT22;6746;50.892;4.064;2023-03-01T00:23:06;0.30;99.90
13354;DHT22;6746;50.892;4.064;2023-03-01T00:25:49;0.30;99.90
13354;DHT22;6746;50.892;4.064;2023-03-01T00:28:27;0.30;99.90
13354;DHT22;6746;50.892;4.064;2023-03-01T00:31:13;0.30;99.90
13354;DHT22;6746;50.892;4.064;2023-03-01T00:33:52;0.20;99.90
13354;DHT22;6746;50.892;4.064;2023-03-01T00:36:36;0.10;99.90
13354;DHT22;6746;50.892;4.064;2023-03-01T00:39:13;0.00;99.90
13354;DHT22;6746;50.892;4.064;2023-03-01T00:41:56;0.00;99.90
13354;DHT22;6746;50.892;4.064;2023-03-01T00:44:34;0.00;99.90
13354;DHT22;6746;50.892;4.064;2023-03-01T00:47:18;-0.10;99.90
13354;DHT22;6746;50.892;4.064;2023-03-01T00:49:56;-0.10;99.90
13354;DHT22;6746;50.892;4.064;2023-03-01T00:52:44;-0.20;99.90
13354;DHT22;6746;50.892;4.064;2023-03-01T00:55:31;-0.10;99.90
13354;DHT22;6746;50.892;4.064;2023-03-01T00:58:19;-0.20;99.90
13354;DHT22;6746;50.892;4.064;2023-03-01T01:01:12;-0.20;99.90
13354;DHT22;6746;50.892;4.064;2023-03-01T01:04:03;-0.20;99.90
13354;DHT22;6746;50.892;4.064;2023-03-01T01:06:44;-0.20;99.90
13354;DHT22;6746;50.892;4.064;2023-03-01T01:09:21;-0.20;99.90
13354;DHT22;6746;50.892;4.064;2023-03-01T01:11:59;-0.30;99.90
13354;DHT22;6746;50.892;4.064;2023-03-01T01:14:38;-0.20;99.90
13354;DHT22;6746;50.892;4.064;2023-03-01T01:17:21;-0.20;99.90
13354;DHT22;6746;50.892;4.064;2023-03-01T01:19:59;-0.20;99.90
13354;DHT22;6746;50.892;4.064;2023-03-01T01:22:37;-0.10;99.90
13354;DHT22;6746;50.892;4.064;2023-03-01T01:25:15;-0.10;99.90
13354;DHT22;6746;50.892;4.064;2023-03-01T01:28:01;-0.20;99.90
13354;DHT22;6746;50.892;4.064;2023-03-01T01:30:40;-0.20;99.90
13354;DHT22;6746;50.892;4.064;2023-03-01T01:33:18;-0.20;99.90
13354;DHT22;6746;50.892;4.064;2023-03-01T01:35:56;-0.30;99.90
13354;DHT22;6746;50.892;4.064;2023-03-01T01:38:42;-0.30;99.90
13354;DHT22;6746;50.892;4.064;2023-03-01T01:41:21;-0.20;99.90
13354;DHT22;6746;50.892;4.064;2023-03-01T01:47:05;-0.10;99.90
13354;DHT22;6746;50.892;4.064;2023-03-01T01:49:44;-0.10;99.90
13354;DHT22;6746;50.892;4.064;2023-03-01T01:52:27;-0.10;99.90
13354;DHT22;6746;50.892;4.064;2023-03-01T01:55:17;-0.10;99.90
13354;DHT22;6746;50.892;4.064;2023-03-01T01:58:02;-0.20;99.90
13354;DHT22;6746;50.892;4.064;2023-03-01T02:00:40;-0.30;99.90
13354;DHT22;6746;50.892;4.064;2023-03-01T02:03:20;-0.40;99.90
13354;DHT22;6746;50.892;4.064;2023-03-01T02:06:06;-0.30;99.90
13354;DHT22;6746;50.892;4.064;2023-03-01T02:08:42;-0.30;99.90
13354;DHT22;6746;50.892;4.064;2023-03-01T02:11:20;-0.30;99.90
13354;DHT22;6746;50.892;4.064;2023-03-01T02:13:58;-0.30;99.90
13354;DHT22;6746;50.892;4.064;2023-03-01T02:16:44;-0.30;99.90
13354;DHT22;6746;50.892;4.064;2023-03-01T02:19:49;-0.30;99.90
13354;DHT22;6746;50.892;4.064;2023-03-01T02:22:41;-0.40;99.90
13354;DHT22;6746;50.892;4.064;2023-03-01T02:25:47;-0.40;99.90
13354;DHT22;6746;50.892;4.064;2023-03-01T02:28:38;-0.40;99.90
13354;DHT22;6746;50.892;4.064;2023-03-01T02:31:17;-0.40;99.90
13354;DHT22;6746;50.892;4.064;2023-03-01T02:34:13;-0.40;99.90
13354;DHT22;6746;50.892;4.064;2023-03-01T02:36:55;-0.40;99.90
13354;DHT22;6746;50.892;4.064;2023-03-01T02:39:33;-0.40;99.90
13354;DHT22;6746;50.892;4.064;2023-03-01T02:42:21;-0.40;99.90
13354;DHT22;6746;50.892;4.064;2023-03-01T02:45:07;-0.40;99.90
13354;DHT22;6746;50.892;4.064;2023-03-01T02:47:53;-0.40;99.90
13354;DHT22;6746;50.892;4.064;2023-03-01T02:53:19;-0.40;99.90
13354;DHT22;6746;50.892;4.064;2023-03-01T02:56:05;-0.50;99.90
13354;DHT22;6746;50.892;4.064;2023-03-01T02:58:43;-0.50;99.90
13354;DHT22;6746;50.892;4.064;2023-03-01T03:01:24;-0.50;99.90
13354;DHT22;6746;50.892;4.064;2023-03-01T03:04:11;-0.50;99.90
13354;DHT22;6746;50.892;4.064;2023-03-01T03:06:49;-0.50;99.90
13354;DHT22;6746;50.892;4.064;2023-03-01T03:09:29;-0.50;99.90
13354;DHT22;6746;50.892;4.064;2023-03-01T03:12:08;-0.60;99.90
13354;DHT22;6746;50.892;4.064;2023-03-01T03:14:54;-0.50;99.90
13354;DHT22;6746;50.892;4.064;2023-03-01T03:17:32;-0.50;99.90
13354;DHT22;6746;50.892;4.064;2023-03-01T03:20:10;-0.40;99.90
13354;DHT22;6746;50.892;4.064;2023-03-01T03:22:49;-0.50;99.90
13354;DHT22;6746;50.892;4.064;2023-03-01T03:25:36;-0.50;99.90
13354;DHT22;6746;50.892;4.064;2023-03-01T03:28:17;-0.50;99.90
13354;DHT22;6746;50.892;4.064;2023-03-01T03:30:55;-0.50;99.90
13354;DHT22;6746;50.892;4.064;2023-03-01T03:33:33;-0.50;99.90
13354;DHT22;6746;50.892;4.064;2023-03-01T03:36:18;-0.50;99.90
13354;DHT22;6746;50.892;4.064;2023-03-01T03:38:55;-0.50;99.90
13354;DHT22;6746;50.892;4.064;2023-03-01T03:41:34;-0.50;99.90
13354;DHT22;6746;50.892;4.064;2023-03-01T03:44:15;-0.60;99.90
13354;DHT22;6746;50.892;4.064;2023-03-01T03:46:54;-0.60;99.90
13354;DHT22;6746;50.892;4.064;2023-03-01T03:49:35;-0.60;99.90
13354;DHT22;6746;50.892;4.064;2023-03-01T03:52:13;-0.60;99.90
13354;DHT22;6746;50.892;4.064;2023-03-01T03:55:01;-0.60;99.90
13354;DHT22;6746;50.892;4.064;2023-03-01T03:57:48;-0.60;99.90
13354;DHT22;6746;50.892;4.064;2023-03-01T04:00:43;-0.60;99.90
13354;DHT22;6746;50.892;4.064;2023-03-01T04:03:24;-0.60;99.90
13354;DHT22;6746;50.892;4.064;2023-03-01T04:06:02;-0.60;99.90
13354;DHT22;6746;50.892;4.064;2023-03-01T04:08:50;-0.50;99.90
13354;DHT22;6746;50.892;4.064;2023-03-01T04:11:38;-0.60;99.90
13354;DHT22;6746;50.892;4.064;2023-03-01T04:14:26;-0.60;99.90
13354;DHT22;6746;50.892;4.064;2023-03-01T04:17:14;-0.60;99.90
13354;DHT22;6746;50.892;4.064;2023-03-01T04:20:02;-0.50;99.90
13354;DHT22;6746;50.892;4.064;2023-03-01T04:22:44;-0.60;99.90
13354;DHT22;6746;50.892;4.064;2023-03-01T04:25:25;-0.60;99.90
13354;DHT22;6746;50.892;4.064;2023-03-01T04:28:06;-0.70;99.90
13354;DHT22;6746;50.892;4.064;2023-03-01T04:30:44;-0.60;99.90
13354;DHT22;6746;50.892;4.064;2023-03-01T04:33:22;-0.70;99.90
13354;DHT22;6746;50.892;4.064;2023-03-01T04:36:01;-0.70;99.90
13354;DHT22;6746;50.892;4.064;2023-03-01T04:38:49;-0.70;99.90
13354;DHT22;6746;50.892;4.064;2023-03-01T04:41:37;-0.70;99.90
13354;DHT22;6746;50.892;4.064;2023-03-01T04:44:25;-0.80;99.90
13354;DHT22;6746;50.892;4.064;2023-03-01T04:47:03;-0.80;99.90
13354;DHT22;6746;50.892;4.064;2023-03-01T04:49:42;-0.80;99.90
13354;DHT22;6746;50.892;4.064;2023-03-01T04:52:20;-0.90;99.90
13354;DHT22;6746;50.892;4.064;2023-03-01T04:54:59;-0.90;99.90
13354;DHT22;6746;50.892;4.064;2023-03-01T04:57:40;-0.90;99.90
13354;DHT22;6746;50.892;4.064;2023-03-01T05:00:18;-0.90;99.90
13354;DHT22;6746;50.892;4.064;2023-03-01T05:03:01;-0.90;99.90
13354;DHT22;6746;50.892;4.064;2023-03-01T05:05:39;-0.90;99.90
13354;DHT22;6746;50.892;4.064;2023-03-01T05:08:27;-0.90;99.90
13354;DHT22;6746;50.892;4.064;2023-03-01T05:11:14;-0.90;99.90
13354;DHT22;6746;50.892;4.064;2023-03-01T05:13:56;-0.90;99.90
13354;DHT22;6746;50.892;4.064;2023-03-01T05:16:34;-0.90;99.90
13354;DHT22;6746;50.892;4.064;2023-03-01T05:19:15;-0.90;99.90
13354;DHT22;6746;50.892;4.064;2023-03-01T05:21:53;-0.90;99.90
13354;DHT22;6746;50.892;4.064;2023-03-01T05:24:43;-0.90;99.90
13354;DHT22;6746;50.892;4.064;2023-03-01T05:27:22;-0.90;99.90
13354;DHT22;6746;50.892;4.064;2023-03-01T05:30:08;-1.00;99.90
13354;DHT22;6746;50.892;4.064;2023-03-01T05:32:52;-1.00;99.90
13354;DHT22;6746;50.892;4.064;2023-03-01T05:35:33;-1.00;99.90
13354;DHT22;6746;50.892;4.064;2023-03-01T05:38:12;-1.00;99.90
13354;DHT22;6746;50.892;4.064;2023-03-01T05:41:01;-1.00;99.90
13354;DHT22;6746;50.892;4.064;2023-03-01T05:43:49;-1.10;99.90
13354;DHT22;6746;50.892;4.064;2023-03-01T05:46:38;-1.10;99.90
13354;DHT22;6746;50.892;4.064;2023-03-01T05:49:21;-1.10;99.90
13354;DHT22;6746;50.892;4.064;2023-03-01T05:52:03;-1.20;99.90
13354;DHT22;6746;50.892;4.064;2023-03-01T05:54:44;-1.20;99.90
13354;DHT22;6746;50.892;4.064;2023-03-01T05:57:22;-1.20;99.90
13354;DHT22;6746;50.892;4.064;2023-03-01T06:00:00;-1.20;99.90
13354;DHT22;6746;50.892;4.064;2023-03-01T06:02:39;-1.30;99.90
13354;DHT22;6746;50.892;4.064;2023-03-01T06:05:20;-1.20;99.90
13354;DHT22;6746;50.892;4.064;2023-03-01T06:07:58;-1.30;99.90
13354;DHT22;6746;50.892;4.064;2023-03-01T06:10:42;-1.30;99.90
13354;DHT22;6746;50.892;4.064;2023-03-01T06:13:20;-1.30;99.90
13354;DHT22;6746;50.892;4.064;2023-03-01T06:16:03;-1.30;99.90
13354;DHT22;6746;50.892;4.064;2023-03-01T06:18:39;-1.30;99.90
13354;DHT22;6746;50.892;4.064;2023-03-01T06:21:17;-1.30;99.90
13354;DHT22;6746;50.892;4.064;2023-03-01T06:23:56;-1.30;99.90
13354;DHT22;6746;50.892;4.064;2023-03-01T06:26:37;-1.20;99.90
13354;DHT22;6746;50.892;4.064;2023-03-01T06:29:05;-1.20;99.90
13354;DHT22;6746;50.892;4.064;2023-03-01T06:31:34;-1.20;99.90
13354;DHT22;6746;50.892;4.064;2023-03-01T06:34:12;-1.30;99.90
13354;DHT22;6746;50.892;4.064;2023-03-01T06:36:50;-1.20;99.90
13354;DHT22;6746;50.892;4.064;2023-03-01T06:39:29;-1.20;99.90
13354;DHT22;6746;50.892;4.064;2023-03-01T06:42:10;-1.20;99.90
13354;DHT22;6746;50.892;4.064;2023-03-01T06:44:41;-1.20;99.90
13354;DHT22;6746;50.892;4.064;2023-03-01T06:47:10;-1.20;99.90
13354;DHT22;6746;50.892;4.064;2023-03-01T06:49:39;-1.20;99.90
13354;DHT22;6746;50.892;4.064;2023-03-01T06:52:08;-1.20;99.90
13354;DHT22;6746;50.892;4.064;2023-03-01T06:54:47;-1.20;99.90
13354;DHT22;6746;50.892;4.064;2023-03-01T06:57:16;-1.20;99.90
13354;DHT22;6746;50.892;4.064;2023-03-01T06:59:46;-1.10;99.90
13354;DHT22;6746;50.892;4.064;2023-03-01T07:02:14;-1.10;99.90
13354;DHT22;6746;50.892;4.064;2023-03-01T07:04:51;-1.00;99.90
13354;DHT22;6746;50.892;4.064;2023-03-01T07:07:20;-1.00;99.90
13354;DHT22;6746;50.892;4.064;2023-03-01T07:09:53;-0.80;99.90
13354;DHT22;6746;50.892;4.064;2023-03-01T07:12:22;-0.70;99.90
13354;DHT22;6746;50.892;4.064;2023-03-01T07:15:01;-0.60;99.90
13354;DHT22;6746;50.892;4.064;2023-03-01T07:17:39;-0.50;99.90
13354;DHT22;6746;50.892;4.064;2023-03-01T07:20:20;-0.40;99.90
13354;DHT22;6746;50.892;4.064;2023-03-01T07:22:54;-0.20;99.90
13354;DHT22;6746;50.892;4.064;2023-03-01T07:25:22;-0.10;99.90
13354;DHT22;6746;50.892;4.064;2023-03-01T07:27:54;0.00;99.90
13354;DHT22;6746;50.892;4.064;2023-03-01T07:30:23;0.10;99.90
13354;DHT22;6746;50.892;4.064;2023-03-01T07:32:52;0.20;99.90
13354;DHT22;6746;50.892;4.064;2023-03-01T07:35:21;0.30;99.90
13354;DHT22;6746;50.892;4.064;2023-03-01T07:37:52;0.40;99.90
13354;DHT22;6746;50.892;4.064;2023-03-01T07:40:21;0.40;99.90
13354;DHT22;6746;50.892;4.064;2023-03-01T07:43:00;0.50;99.90
13354;DHT22;6746;50.892;4.064;2023-03-01T07:45:32;0.60;99.90
13354;DHT22;6746;50.892;4.064;2023-03-01T07:48:01;0.60;99.90
13354;DHT22;6746;50.892;4.064;2023-03-01T07:50:30;0.70;99.90
13354;DHT22;6746;50.892;4.064;2023-03-01T07:52:59;0.80;99.90
13354;DHT22;6746;50.892;4.064;2023-03-01T07:55:37;0.80;99.90
13354;DHT22;6746;50.892;4.064;2023-03-01T07:58:15;0.90;99.90
13354;DHT22;6746;50.892;4.064;2023-03-01T08:00:46;1.00;99.90
13354;DHT22;6746;50.892;4.064;2023-03-01T08:03:15;1.20;99.90
13354;DHT22;6746;50.892;4.064;2023-03-01T08:05:53;1.20;99.90
13354;DHT22;6746;50.892;4.064;2023-03-01T08:08:32;1.30;99.90
13354;DHT22;6746;50.892;4.064;2023-03-01T08:11:19;1.30;99.90
13354;DHT22;6746;50.892;4.064;2023-03-01T08:13:58;1.30;99.90
13354;DHT22;6746;50.892;4.064;2023-03-01T08:16:29;1.50;99.90
13354;DHT22;6746;50.892;4.064;2023-03-01T08:19:02;1.70;99.90
13354;DHT22;6746;50.892;4.064;2023-03-01T08:21:30;1.80;99.90
13354;DHT22;6746;50.892;4.064;2023-03-01T08:23:59;1.80;99.90
13354;DHT22;6746;50.892;4.064;2023-03-01T08:26:36;1.90;99.90
13354;DHT22;6746;50.892;4.064;2023-03-01T08:29:04;2.00;99.90
13354;DHT22;6746;50.892;4.064;2023-03-01T08:31:42;2.10;99.90
13354;DHT22;6746;50.892;4.064;2023-03-01T08:34:31;2.20;99.90
13354;DHT22;6746;50.892;4.064;2023-03-01T08:36:59;2.30;99.90
13354;DHT22;6746;50.892;4.064;2023-03-01T08:39:28;2.20;99.90
13354;DHT22;6746;50.892;4.064;2023-03-01T08:42:07;2.40;99.90
13354;DHT22;6746;50.892;4.064;2023-03-01T08:44:40;2.50;99.90
13354;DHT22;6746;50.892;4.064;2023-03-01T08:47:09;2.60;99.90
13354;DHT22;6746;50.892;4.064;2023-03-01T08:49:48;2.50;99.90
13354;DHT22;6746;50.892;4.064;2023-03-01T08:52:26;2.60;99.90
13354;DHT22;6746;50.892;4.064;2023-03-01T08:54:57;2.70;99.90
13354;DHT22;6746;50.892;4.064;2023-03-01T08:57:26;2.80;99.90
13354;DHT22;6746;50.892;4.064;2023-03-01T09:00:04;2.80;99.90
13354;DHT22;6746;50.892;4.064;2023-03-01T09:02:43;2.80;99.90
13354;DHT22;6746;50.892;4.064;2023-03-01T09:05:14;2.90;99.90
13354;DHT22;6746;50.892;4.064;2023-03-01T09:07:43;3.00;99.90
13354;DHT22;6746;50.892;4.064;2023-03-01T09:10:20;3.10;99.90
13354;DHT22;6746;50.892;4.064;2023-03-01T09:12:48;3.20;99.90
13354;DHT22;6746;50.892;4.064;2023-03-01T09:15:37;3.40;99.90
13354;DHT22;6746;50.892;4.064;2023-03-01T09:18:15;3.40;99.90
13354;DHT22;6746;50.892;4.064;2023-03-01T09:20:53;3.60;99.90
13354;DHT22;6746;50.892;4.064;2023-03-01T09:23:31;3.50;99.90
13354;DHT22;6746;50.892;4.064;2023-03-01T09:26:13;3.60;99.90
13354;DHT22;6746;50.892;4.064;2023-03-01T09:28:43;3.60;99.90
13354;DHT22;6746;50.892;4.064;2023-03-01T09:31:12;3.60;99.90
13354;DHT22;6746;50.892;4.064;2023-03-01T09:33:45;3.70;99.90
13354;DHT22;6746;50.892;4.064;2023-03-01T09:36:14;3.80;99.90
13354;DHT22;6746;50.892;4.064;2023-03-01T09:38:49;3.80;99.90
13354;DHT22;6746;50.892;4.064;2023-03-01T09:44:29;4.00;99.90
13354;DHT22;6746;50.892;4.064;2023-03-01T09:46:59;4.10;99.90
13354;DHT22;6746;50.892;4.064;2023-03-01T09:49:39;3.90;99.90
13354;DHT22;6746;50.892;4.064;2023-03-01T09:52:13;4.00;99.90
13354;DHT22;6746;50.892;4.064;2023-03-01T09:54:49;4.00;99.90
13354;DHT22;6746;50.892;4.064;2023-03-01T09:57:28;4.20;99.90
13354;DHT22;6746;50.892;4.064;2023-03-01T10:00:16;4.30;99.90
13354;DHT22;6746;50.892;4.064;2023-03-01T10:02:48;4.30;99.90
13354;DHT22;6746;50.892;4.064;2023-03-01T10:08:40;4.40;99.90
13354;DHT22;6746;50.892;4.064;2023-03-01T10:11:19;4.40;99.90
13354;DHT22;6746;50.892;4.064;2023-03-01T10:13:59;4.50;99.90
13354;DHT22;6746;50.892;4.064;2023-03-01T10:16:34;4.50;99.90
13354;DHT22;6746;50.892;4.064;2023-03-01T10:19:06;4.50;99.90
13354;DHT22;6746;50.892;4.064;2023-03-01T10:21:36;4.50;99.90
13354;DHT22;6746;50.892;4.064;2023-03-01T10:24:12;4.50;99.90
13354;DHT22;6746;50.892;4.064;2023-03-01T10:32:38;4.70;99.90
13354;DHT22;6746;50.892;4.064;2023-03-01T10:35:26;4.80;99.90
13354;DHT22;6746;50.892;4.064;2023-03-01T10:38:10;5.00;99.90
13354;DHT22;6746;50.892;4.064;2023-03-01T10:43:56;5.00;99.90
13354;DHT22;6746;50.892;4.064;2023-03-01T10:46:35;5.00;99.90
13354;DHT22;6746;50.892;4.064;2023-03-01T10:49:15;5.00;99.90
13354;DHT22;6746;50.892;4.064;2023-03-01T10:51:43;4.80;99.90
13354;DHT22;6746;50.892;4.064;2023-03-01T10:54:34;4.70;99.90
13354;DHT22;6746;50.892;4.064;2023-03-01T10:57:00;4.60;99.90
13354;DHT22;6746;50.892;4.064;2023-03-01T11:02:29;5.00;99.90
13354;DHT22;6746;50.892;4.064;2023-03-01T11:07:51;5.00;99.90
13354;DHT22;6746;50.892;4.064;2023-03-01T11:10:35;5.00;99.90
13354;DHT22;6746;50.892;4.064;2023-03-01T11:13:14;5.10;99.90
13354;DHT22;6746;50.892;4.064;2023-03-01T11:16:00;5.10;99.90
13354;DHT22;6746;50.892;4.064;2023-03-01T11:18:37;5.20;99.90
13354;DHT22;6746;50.892;4.064;2023-03-01T11:21:15;5.40;99.90
13354;DHT22;6746;50.892;4.064;2023-03-01T11:24:03;5.40;99.90
13354;DHT22;6746;50.892;4.064;2023-03-01T11:26:42;5.30;99.90
13354;DHT22;6746;50.892;4.064;2023-03-01T11:29:16;5.30;99.90
13354;DHT22;6746;50.892;4.064;2023-03-01T11:31:41;5.50;99.90
13354;DHT22;6746;50.892;4.064;2023-03-01T11:34:17;5.50;99.90
13354;DHT22;6746;50.892;4.064;2023-03-01T11:36:47;5.60;99.90
13354;DHT22;6746;50.892;4.064;2023-03-01T11:39:33;5.60;99.90
13354;DHT22;6746;50.892;4.064;2023-03-01T11:42:06;5.60;99.90
13354;DHT22;6746;50.892;4.064;2023-03-01T11:44:44;5.70;99.90
13354;DHT22;6746;50.892;4.064;2023-03-01T11:47:24;5.80;99.90
13354;DHT22;6746;50.892;4.064;2023-03-01T11:50:20;6.00;99.90
13354;DHT22;6746;50.892;4.064;2023-03-01T11:53:06;5.90;99.90
13354;DHT22;6746;50.892;4.064;2023-03-01T11:58:27;5.90;99.90
13354;DHT22;6746;50.892;4.064;2023-03-01T12:25:21;6.20;99.90
13354;DHT22;6746;50.892;4.064;2023-03-01T12:36:07;6.30;99.90
13354;DHT22;6746;50.892;4.064;2023-03-01T12:38:50;6.30;99.90
13354;DHT22;6746;50.892;4.064;2023-03-01T12:49:49;6.70;99.90
13354;DHT22;6746;50.892;4.064;2023-03-01T12:52:33;6.70;99.90
13354;DHT22;6746;50.892;4.064;2023-03-01T12:55:08;6.70;99.90
13354;DHT22;6746;50.892;4.064;2023-03-01T12:57:42;6.80;99.90
13354;DHT22;6746;50.892;4.064;2023-03-01T13:00:18;6.70;99.90
13354;DHT22;6746;50.892;4.064;2023-03-01T13:02:52;6.60;99.90
13354;DHT22;6746;50.892;4.064;2023-03-01T13:05:39;6.70;99.90
13354;DHT22;6746;50.892;4.064;2023-03-01T13:08:03;6.80;99.90
13354;DHT22;6746;50.892;4.064;2023-03-01T13:10:58;6.80;99.90
13354;DHT22;6746;50.892;4.064;2023-03-01T13:13:32;6.80;99.90
13354;DHT22;6746;50.892;4.064;2023-03-01T13:19:17;6.80;99.90
13354;DHT22;6746;50.892;4.064;2023-03-01T13:21:49;6.90;99.90
13354;DHT22;6746;50.892;4.064;2023-03-01T13:29:56;7.10;99.90
13354;DHT22;6746;50.892;4.064;2023-03-01T13:32:42;7.20;99.90
13354;DHT22;6746;50.892;4.064;2023-03-01T13:38:36;7.00;99.90
13354;DHT22;6746;50.892;4.064;2023-03-01T13:43:38;7.00;99.90
13354;DHT22;6746;50.892;4.064;2023-03-01T13:46:18;7.00;99.90
13354;DHT22;6746;50.892;4.064;2023-03-01T13:48:55;7.10;99.90
13354;DHT22;6746;50.892;4.064;2023-03-01T13:51:27;7.10;99.90
13354;DHT22;6746;50.892;4.064;2023-03-01T13:53:55;7.10;99.90
13354;DHT22;6746;50.892;4.064;2023-03-01T13:56:36;7.20;99.90
13354;DHT22;6746;50.892;4.064;2023-03-01T13:59:15;7.10;99.90
13354;DHT22;6746;50.892;4.064;2023-03-01T14:01:56;7.10;99.90
13354;DHT22;6746;50.892;4.064;2023-03-01T14:04:27;7.20;99.90
13354;DHT22;6746;50.892;4.064;2023-03-01T14:07:10;7.30;99.90
13354;DHT22;6746;50.892;4.064;2023-03-01T14:10:02;7.20;99.90
13354;DHT22;6746;50.892;4.064;2023-03-01T14:16:06;7.20;99.90
13354;DHT22;6746;50.892;4.064;2023-03-01T14:18:35;7.30;99.90
13354;DHT22;6746;50.892;4.064;2023-03-01T14:21:08;7.30;99.90
13354;DHT22;6746;50.892;4.064;2023-03-01T14:23:38;7.20;99.90
13354;DHT22;6746;50.892;4.064;2023-03-01T14:26:14;7.30;99.90
13354;DHT22;6746;50.892;4.064;2023-03-01T14:28:42;7.30;99.90
13354;DHT22;6746;50.892;4.064;2023-03-01T14:34:19;7.40;99.90
13354;DHT22;6746;50.892;4.064;2023-03-01T14:36:47;7.40;99.90
13354;DHT22;6746;50.892;4.064;2023-03-01T14:39:26;7.40;99.90
13354;DHT22;6746;50.892;4.064;2023-03-01T14:41:54;7.50;99.90
13354;DHT22;6746;50.892;4.064;2023-03-01T14:44:24;7.50;99.90
13354;DHT22;6746;50.892;4.064;2023-03-01T14:46:56;7.50;99.90
13354;DHT22;6746;50.892;4.064;2023-03-01T14:49:29;7.50;99.90
13354;DHT22;6746;50.892;4.064;2023-03-01T14:52:03;7.50;99.90
13354;DHT22;6746;50.892;4.064;2023-03-01T14:57:16;7.40;99.90
13354;DHT22;6746;50.892;4.064;2023-03-01T14:59:49;7.40;99.90
13354;DHT22;6746;50.892;4.064;2023-03-01T15:02:18;7.40;99.90
13354;DHT22;6746;50.892;4.064;2023-03-01T15:05:02;7.50;99.90
13354;DHT22;6746;50.892;4.064;2023-03-01T15:07:31;7.60;99.90
13354;DHT22;6746;50.892;4.064;2023-03-01T15:10:02;7.60;99.90
13354;DHT22;6746;50.892;4.064;2023-03-01T15:15:43;7.60;99.90
13354;DHT22;6746;50.892;4.064;2023-03-01T15:18:27;7.50;99.90
13354;DHT22;6746;50.892;4.064;2023-03-01T15:21:06;7.40;99.90
13354;DHT22;6746;50.892;4.064;2023-03-01T15:23:41;7.30;99.90
13354;DHT22;6746;50.892;4.064;2023-03-01T15:26:27;7.40;99.90
13354;DHT22;6746;50.892;4.064;2023-03-01T15:29:10;7.40;99.90
13354;DHT22;6746;50.892;4.064;2023-03-01T15:31:53;7.40;99.90
13354;DHT22;6746;50.892;4.064;2023-03-01T15:34:22;7.40;99.90
13354;DHT22;6746;50.892;4.064;2023-03-01T15:36:59;7.40;99.90
13354;DHT22;6746;50.892;4.064;2023-03-01T15:39:42;7.40;99.90
13354;DHT22;6746;50.892;4.064;2023-03-01T15:47:50;7.30;99.90
13354;DHT22;6746;50.892;4.064;2023-03-01T15:50:28;7.20;99.90
13354;DHT22;6746;50.892;4.064;2023-03-01T15:53:06;7.20;99.90
13354;DHT22;6746;50.892;4.064;2023-03-01T15:55:41;7.20;99.90
13354;DHT22;6746;50.892;4.064;2023-03-01T15:58:13;7.20;99.90
13354;DHT22;6746;50.892;4.064;2023-03-01T16:00:47;7.20;99.90
13354;DHT22;6746;50.892;4.064;2023-03-01T16:03:17;7.20;99.90
13354;DHT22;6746;50.892;4.064;2023-03-01T16:05:56;7.20;99.90
13354;DHT22;6746;50.892;4.064;2023-03-01T16:08:26;7.20;99.90
13354;DHT22;6746;50.892;4.064;2023-03-01T16:10:58;7.10;99.90
13354;DHT22;6746;50.892;4.064;2023-03-01T16:13:32;7.10;99.90
13354;DHT22;6746;50.892;4.064;2023-03-01T16:16:01;7.10;99.90
13354;DHT22;6746;50.892;4.064;2023-03-01T16:18:49;7.00;99.90
13354;DHT22;6746;50.892;4.064;2023-03-01T16:21:28;7.00;99.90
13354;DHT22;6746;50.892;4.064;2023-03-01T16:23:56;7.00;99.90
13354;DHT22;6746;50.892;4.064;2023-03-01T16:26:25;7.00;99.90
13354;DHT22;6746;50.892;4.064;2023-03-01T16:29:04;7.00;99.90
13354;DHT22;6746;50.892;4.064;2023-03-01T16:31:37;6.90;99.90
13354;DHT22;6746;50.892;4.064;2023-03-01T16:34:05;6.90;99.90
13354;DHT22;6746;50.892;4.064;2023-03-01T16:36:39;6.80;99.90
13354;DHT22;6746;50.892;4.064;2023-03-01T16:39:08;6.80;99.90
13354;DHT22;6746;50.892;4.064;2023-03-01T16:41:40;6.80;99.90
13354;DHT22;6746;50.892;4.064;2023-03-01T16:44:09;6.70;99.90
13354;DHT22;6746;50.892;4.064;2023-03-01T16:46:38;6.70;99.90
13354;DHT22;6746;50.892;4.064;2023-03-01T16:49:07;6.70;99.90
13354;DHT22;6746;50.892;4.064;2023-03-01T16:51:41;6.60;99.90
13354;DHT22;6746;50.892;4.064;2023-03-01T16:54:10;6.60;99.90
13354;DHT22;6746;50.892;4.064;2023-03-01T16:56:49;6.50;99.90
13354;DHT22;6746;50.892;4.064;2023-03-01T16:59:22;6.50;99.90
13354;DHT22;6746;50.892;4.064;2023-03-01T17:02:01;6.50;99.90
13354;DHT22;6746;50.892;4.064;2023-03-01T17:04:39;6.40;99.90
13354;DHT22;6746;50.892;4.064;2023-03-01T17:07:17;6.30;99.90
13354;DHT22;6746;50.892;4.064;2023-03-01T17:09:55;6.30;99.90
13354;DHT22;6746;50.892;4.064;2023-03-01T17:12:34;6.20;99.90
13354;DHT22;6746;50.892;4.064;2023-03-01T17:15:05;6.20;99.90
13354;DHT22;6746;50.892;4.064;2023-03-01T17:17:33;6.10;99.90
13354;DHT22;6746;50.892;4.064;2023-03-01T17:20:10;6.00;99.90
13354;DHT22;6746;50.892;4.064;2023-03-01T17:22:39;6.00;99.90
13354;DHT22;6746;50.892;4.064;2023-03-01T17:25:16;5.80;99.90
13354;DHT22;6746;50.892;4.064;2023-03-01T17:27:44;5.80;99.90
13354;DHT22;6746;50.892;4.064;2023-03-01T17:30:23;5.80;99.90
13354;DHT22;6746;50.892;4.064;2023-03-01T17:32:56;5.80;99.90
13354;DHT22;6746;50.892;4.064;2023-03-01T17:35:25;5.80;99.90
13354;DHT22;6746;50.892;4.064;2023-03-01T17:38:04;5.70;99.90
13354;DHT22;6746;50.892;4.064;2023-03-01T17:40:42;5.70;99.90
13354;DHT22;6746;50.892;4.064;2023-03-01T17:43:20;5.60;99.90
13354;DHT22;6746;50.892;4.064;2023-03-01T17:46:08;5.50;99.90
13354;DHT22;6746;50.892;4.064;2023-03-01T17:48:48;5.50;99.90
13354;DHT22;6746;50.892;4.064;2023-03-01T17:51:26;5.50;99.90
13354;DHT22;6746;50.892;4.064;2023-03-01T17:54:09;5.50;99.90
13354;DHT22;6746;50.892;4.064;2023-03-01T17:56:47;5.50;99.90
13354;DHT22;6746;50.892;4.064;2023-03-01T17:59:35;5.40;99.90
13354;DHT22;6746;50.892;4.064;2023-03-01T18:02:15;5.30;99.90
13354;DHT22;6746;50.892;4.064;2023-03-01T18:04:56;5.20;99.90
13354;DHT22;6746;50.892;4.064;2023-03-01T18:07:38;5.20;99.90
13354;DHT22;6746;50.892;4.064;2023-03-01T18:10:17;5.30;99.90
13354;DHT22;6746;50.892;4.064;2023-03-01T18:13:05;5.20;99.90
13354;DHT22;6746;50.892;4.064;2023-03-01T18:15:52;5.10;99.90
13354;DHT22;6746;50.892;4.064;2023-03-01T18:18:31;5.10;99.90
13354;DHT22;6746;50.892;4.064;2023-03-01T18:21:10;5.00;99.90
13354;DHT22;6746;50.892;4.064;2023-03-01T18:23:51;5.00;99.90
13354;DHT22;6746;50.892;4.064;2023-03-01T18:26:29;5.00;99.90
13354;DHT22;6746;50.892;4.064;2023-03-01T18:29:09;4.90;99.90
13354;DHT22;6746;50.892;4.064;2023-03-01T18:31:48;4.90;99.90
13354;DHT22;6746;50.892;4.064;2023-03-01T18:34:31;4.90;99.90
13354;DHT22;6746;50.892;4.064;2023-03-01T18:37:09;4.90;99.90
13354;DHT22;6746;50.892;4.064;2023-03-01T18:39:55;4.90;99.90
13354;DHT22;6746;50.892;4.064;2023-03-01T18:42:33;4.80;99.90
13354;DHT22;6746;50.892;4.064;2023-03-01T18:45:11;4.80;99.90
13354;DHT22;6746;50.892;4.064;2023-03-01T18:47:49;4.80;99.90